Holley, New York
Current Conditions -  °F | °C
As of 12:54 PM on Saturday 25 Oct 2014 (Local Time) from KROC Reporting Station
Broken Clouds Broken Clouds  
Wind Chill: 65°   Ceiling: 22000
Heat Index: 65°   Visibility: 10mi
Dew Point: 47°   Wind: 12mph
Humidity: 52%   Direction: 240°WSW
Pressure: 29.65"   Gusts: NA
Location:  43.23°N, 78.03°W
Report Text: KROC 251654Z 24010KT 10SM FEW040 SCT075 SCT110 BKN220 18/08 A2965 RMK AO2 PK WND 23026/1618 SLP044 T01830083
Loading
Personal Weather Stations






























Interactive Weather Map
Tropical Storm Tracking
New forecast layout! Learn more

10-Day Weather Forecast

Advertisements
Track Severe Weather on mobile